West Dover, VT (05356)

12:40 AM EDT on July 28, 2017 (GMT -0400)
Summit Meadows | | Change Station
Active Advisory: Special Statement

Elev 1818 ft 42.94 °N, 72.85 °W | Updated 14 seconds ago

Mostly Cloudy
Mostly Cloudy
58.4 °F
Feels Like 58.4 °F
N
0.0
Wind Variable Wind from NW

Today
High -- | Low -- °F
--% Chance of Precip.
Yesterday
High -- | Low -- °F
Precip. -- in
Pressure 29.89 in
Visibility 6.0 miles
Clouds Few 1900 ft
Mostly Cloudy 3300 ft
Dew Point 57 °F
Humidity 98%
Rainfall 0.00 in
Snow Depth Not available.
5:38 AM 8:16 PM
Waxing Crescent, 27% visible
SPECI KDDH 280425Z AUTO 00000KT 6SM BR FEW019 BKN033 16/15 A2989 RMK AO2 T01560150
Pressure 29.89 in
Visibility 6.0 miles
Clouds Few 1900 ft
Mostly Cloudy 3300 ft
Dew Point 57 °F
Humidity 98%
Rainfall 0.00 in
Snow Depth Not available.
5:38 AM 8:16 PM
Waxing Crescent, 27% visible
SPECI KDDH 280425Z AUTO 00000KT 6SM BR FEW019 BKN033 16/15 A2989 RMK AO2 T01560150

Get Your Daily Forecast Email!

Thanks for signing up!

Be on the lookout for a verification email in your inbox.

You'll start receiving severe weather alerts in your inbox..

×

10-Day Weather Forecast

Almanac

Astronomy

Jul. 28, 2017 Rise Set
Actual Time
Civil Twilight
Nautical Twilight
Astronomical Twilight
Moon
Length of Visible Light
Length of Day
Tomorrow will be .
, % of the Moon is Illuminated

Today's Extremes

State Highs State Lows

Community

WunderPhotos

Category 6

Welcome to Category 6. This is the collective home for Weather Underground's featured writeups by Dr. Jeff Masters (right), Bob Henson (left), Chris Burt, and other regular contributors.

Nearby

Air Quality

  Air Quality AQ Index Pollutant
Not available.

Snow Depth

Station Depth Elevation

Earthquake Activity

City Distance Mag. Time & Date
Minimum magnitude displayed is 2.5.

Coastal Water Temperatures

Place Temperature

Stations

Nearby Weather Stations

Station Location Temp. Windchill Dew Point Humidity Wind Precip. Elev Updated Type
                   

Watches & Warnings

Special Statement
Issued: 12:26 AM EDT Jul. 28, 2017 – National Weather Service

... Patchy dense fog through this early Friday morning...
patchy dense fog will reduce visibilities to less than one mile
through this early Friday morning. Motorists are urged to watch
for sudden changes in visibilities and adjust driving speeds
accordingly. Leave plenty of room between neighboring motorists,
use low beam headlights and allow for some extra time to reach
your destination safely.


1226 am EDT Fri Jul 28 2017

... Patchy dense fog through this early Friday morning...
patchy dense fog will reduce visibilities to less than one mile
through this early Friday morning. Motorists are urged to watch
for sudden changes in visibilities and adjust driving speeds
accordingly. Leave plenty of room between neighboring motorists,
use low beam headlights and allow for some extra time to reach
your destination safely.